createdAt,value
2022-11-28T10:19:52.379Z,33.78
2022-11-28T10:23:45.434Z,32.97
2022-11-28T10:27:49.362Z,33.03
2022-11-28T10:31:55.768Z,34.50
2022-11-28T10:36:00.675Z,41.55
2022-11-28T10:40:14.263Z,34.78
2022-11-28T10:44:23.102Z,30.95
2022-11-28T10:48:45.707Z,31.15
2022-11-28T10:52:53.294Z,36.10
2022-11-28T10:57:20.013Z,31.35
2022-11-28T11:01:22.050Z,33.25
2022-11-28T11:05:28.508Z,28.10
2022-11-28T11:09:30.220Z,34.70
2022-11-28T11:13:35.572Z,29.23
2022-11-28T11:17:40.018Z,30.58
2022-11-28T11:21:41.710Z,28.10
2022-11-28T11:25:53.291Z,32.05
2022-11-28T11:29:55.202Z,35.83
2022-11-28T11:34:06.937Z,30.67
2022-11-28T11:38:17.522Z,25.20
2022-11-28T11:42:25.492Z,30.83
2022-11-28T11:46:27.258Z,36.40
2022-11-28T11:50:31.556Z,35.17
2022-11-28T11:54:33.366Z,31.77
2022-11-28T11:58:49.779Z,35.70
2022-11-28T12:03:06.897Z,32.50
2022-11-28T12:07:28.382Z,36.08
2022-11-28T12:11:43.826Z,31.73
2022-11-28T12:15:54.548Z,36.00
2022-11-28T12:20:24.108Z,35.63
2022-11-28T12:24:33.038Z,33.53
2022-11-28T12:28:43.726Z,33.70
2022-11-28T12:32:51.127Z,30.58
2022-11-28T12:37:55.227Z,38.67
2022-11-28T12:42:09.650Z,33.20
2022-11-28T12:46:29.623Z,32.55
2022-11-28T12:50:44.001Z,26.63
2022-11-28T12:54:48.652Z,31.17
2022-11-28T12:59:22.462Z,42.50
2022-11-28T13:03:36.410Z,31.23
2022-11-28T13:07:56.579Z,28.55
2022-11-28T13:12:29.534Z,32.60
2022-11-28T13:16:49.973Z,34.53
2022-11-28T13:21:25.384Z,34.38
2022-11-28T13:25:47.854Z,38.80
2022-11-28T13:30:17.334Z,41.25
2022-11-28T13:34:20.506Z,46.08
2022-11-28T13:38:36.662Z,43.40
2022-11-28T13:43:04.003Z,36.77
2022-11-28T13:47:23.529Z,38.17
2022-11-28T13:51:31.721Z,34.42
2022-11-28T13:55:51.062Z,33.95
2022-11-28T14:04:12.410Z,35.00
2022-11-28T14:08:30.876Z,37.75
2022-11-28T14:12:44.893Z,46.90
2022-11-28T14:16:53.072Z,31.00
2022-11-28T14:21:43.571Z,40.92
2022-11-28T14:25:49.236Z,39.25
2022-11-28T14:29:53.455Z,35.55
2022-11-28T14:34:04.806Z,33.58
2022-11-28T14:38:46.704Z,49.80
2022-11-28T14:43:25.247Z,37.28
2022-11-28T14:47:42.926Z,34.08
2022-11-28T14:51:48.159Z,35.10
2022-11-28T14:55:51.321Z,29.92
2022-11-28T14:59:54.966Z,38.28
2022-11-28T15:04:13.878Z,33.63
2022-11-28T15:08:37.297Z,42.45
2022-11-28T15:12:51.953Z,40.50
2022-11-28T15:17:04.241Z,39.70
2022-11-28T15:21:11.964Z,42.88
2022-11-28T15:25:26.885Z,47.75
2022-11-28T15:29:29.147Z,39.10
2022-11-28T15:33:32.113Z,36.33
2022-11-28T15:37:35.294Z,41.38
2022-11-28T15:41:37.980Z,35.50
2022-11-28T15:45:43.423Z,32.75
2022-11-28T15:49:45.657Z,37.05
2022-11-28T15:53:47.372Z,33.15
2022-11-28T15:57:49.251Z,34.80
2022-11-28T16:01:59.240Z,40.78
2022-11-28T16:06:01.480Z,37.67
2022-11-28T16:10:17.383Z,30.60
2022-11-28T16:14:45.691Z,37.42
2022-11-28T16:18:55.205Z,35.83
2022-11-28T16:23:02.807Z,36.00
2022-11-28T16:27:06.202Z,25.42
2022-11-28T16:31:21.603Z,30.40
2022-11-28T16:35:26.488Z,37.50
2022-11-28T16:39:32.519Z,28.40
2022-11-28T16:43:39.489Z,30.75
2022-11-28T16:47:41.329Z,27.33
2022-11-28T16:51:43.012Z,27.15
2022-11-28T16:55:45.053Z,24.08
2022-11-28T16:59:48.491Z,23.73
2022-11-28T17:03:52.852Z,37.42
2022-11-28T17:07:54.874Z,34.05
2022-11-28T17:11:59.698Z,25.38
2022-11-28T17:16:01.640Z,22.02
2022-11-28T17:20:03.822Z,22.90
2022-11-28T17:24:06.507Z,62.30
2022-11-28T17:28:09.302Z,24.45
2022-11-28T17:32:13.563Z,27.02
2022-11-28T17:36:15.351Z,26.95
2022-11-28T17:40:36.780Z,23.05
2022-11-28T17:44:39.166Z,33.25
2022-11-28T17:48:40.908Z,25.83
2022-11-28T17:52:42.590Z,36.75
2022-11-28T17:56:46.084Z,31.70
2022-11-28T18:00:48.678Z,34.05
2022-11-28T18:04:50.403Z,41.38
2022-11-28T18:08:53.453Z,33.72
2022-11-28T18:12:56.345Z,47.47
2022-11-28T18:16:59.678Z,52.00
2022-11-28T18:21:02.101Z,52.03
2022-11-28T18:25:04.117Z,61.97
2022-11-28T18:29:09.142Z,62.58
2022-11-28T18:33:13.854Z,66.07
2022-11-28T18:37:15.576Z,62.30
2022-11-28T18:41:17.759Z,57.88
2022-11-28T18:45:20.979Z,51.65
2022-11-28T18:49:22.795Z,57.20
2022-11-28T18:53:25.168Z,60.85
2022-11-28T18:57:31.528Z,53.22
2022-11-28T19:01:34.741Z,71.00
2022-11-28T19:05:42.155Z,72.53
2022-11-28T19:09:45.555Z,73.38
2022-11-28T19:13:48.410Z,71.00
2022-11-28T19:17:50.104Z,63.45
2022-11-28T19:21:52.822Z,77.30
2022-11-28T19:25:54.642Z,64.50
2022-11-28T19:29:56.353Z,71.32
2022-11-28T19:34:16.148Z,73.97
2022-11-28T19:38:19.292Z,66.60
2022-11-28T19:42:21.176Z,64.25
2022-11-28T19:46:22.884Z,74.43
2022-11-28T19:50:24.648Z,77.10
2022-11-28T19:54:26.728Z,58.25
2022-11-28T19:58:31.703Z,63.97
2022-11-28T20:02:33.735Z,54.97
2022-11-28T20:06:36.026Z,76.03
2022-11-28T20:10:39.308Z,55.85
2022-11-28T20:14:41.974Z,60.08
2022-11-28T20:18:45.155Z,57.90
2022-11-28T20:22:48.480Z,70.88
2022-11-28T20:26:51.190Z,53.78
2022-11-28T20:30:55.111Z,63.65
2022-11-28T20:34:57.090Z,73.35
2022-11-28T20:38:59.648Z,73.75
2022-11-28T20:43:01.331Z,65.45
2022-11-28T20:47:03.049Z,55.75
2022-11-28T20:51:26.130Z,57.25
2022-11-28T20:55:27.837Z,66.60
2022-11-28T20:59:29.680Z,76.03
2022-11-28T21:03:31.955Z,60.53
2022-11-28T21:07:33.748Z,63.42
2022-11-28T21:11:56.945Z,56.78
2022-11-28T21:15:58.587Z,54.35
2022-11-28T21:20:00.272Z,62.33
2022-11-28T21:24:06.149Z,53.65
2022-11-28T21:28:09.538Z,44.38
2022-11-28T21:32:13.627Z,48.10
2022-11-28T21:36:15.512Z,47.53
2022-11-28T21:40:17.305Z,44.30
2022-11-28T21:44:19.710Z,50.17
2022-11-28T21:48:22.091Z,46.33
2022-11-28T21:52:24.753Z,49.30
2022-11-28T21:56:26.648Z,40.70
2022-11-28T22:00:52.054Z,47.05
2022-11-28T22:04:50.607Z,54.92
2022-11-28T22:08:53.847Z,54.15
2022-11-28T22:12:57.908Z,62.97
2022-11-28T22:17:00.077Z,68.43
2022-11-28T22:21:28.532Z,39.95
2022-11-28T22:25:29.016Z,43.50
2022-11-28T22:29:30.841Z,42.58
2022-11-28T22:33:32.717Z,60.75
2022-11-28T22:37:34.437Z,37.88
2022-11-28T22:41:36.433Z,41.13
2022-11-28T22:45:38.232Z,36.78
2022-11-28T22:49:40.136Z,41.47
2022-11-28T22:53:42.422Z,42.05
2022-11-28T22:57:44.126Z,58.38
2022-11-28T23:01:45.865Z,35.50
2022-11-28T23:05:49.294Z,40.22
2022-11-28T23:09:53.238Z,34.08
2022-11-28T23:13:55.071Z,53.85
2022-11-28T23:17:56.970Z,35.33
2022-11-28T23:21:59.036Z,31.80
2022-11-28T23:26:10.482Z,34.97
2022-11-28T23:30:13.007Z,36.67
2022-11-28T23:34:15.686Z,32.95
2022-11-28T23:38:18.571Z,32.35
2022-11-28T23:42:20.361Z,41.08
2022-11-28T23:46:23.227Z,31.15
2022-11-28T23:50:24.895Z,38.33
2022-11-28T23:54:26.561Z,31.02
2022-11-28T23:58:28.222Z,42.40
